sensor_id;sensor_type;location;lat;lon;timestamp;pressure;altitude;pressure_sealevel;temperature
71564;BMP180;59391;52.504;13.438;2023-07-31T11:23:17;100375.00;;;20.10
71564;BMP180;59391;52.504;13.438;2023-07-31T11:25:43;100380.00;;;20.70
71564;BMP180;59391;52.504;13.438;2023-07-31T11:28:12;100359.00;;;21.30
71564;BMP180;59391;52.504;13.438;2023-07-31T11:30:39;100360.00;;;21.70
71564;BMP180;59391;52.504;13.438;2023-07-31T11:33:08;100358.00;;;22.10
71564;BMP180;59391;52.504;13.438;2023-07-31T11:35:36;100363.00;;;22.40
71564;BMP180;59391;52.504;13.438;2023-07-31T11:38:07;100355.00;;;22.70
71564;BMP180;59391;52.504;13.438;2023-07-31T11:40:44;100359.00;;;23.00
71564;BMP180;59391;52.504;13.438;2023-07-31T11:43:10;100370.00;;;23.00
71564;BMP180;59391;52.504;13.438;2023-07-31T11:45:39;100360.00;;;23.20
71564;BMP180;59391;52.504;13.438;2023-07-31T11:48:05;100370.00;;;23.40
71564;BMP180;59391;52.504;13.438;2023-07-31T11:50:33;100359.00;;;23.50
71564;BMP180;59391;52.504;13.438;2023-07-31T11:53:07;100357.00;;;23.70
71564;BMP180;59391;52.504;13.438;2023-07-31T11:55:34;100360.00;;;23.80
71564;BMP180;59391;52.504;13.438;2023-07-31T11:58:00;100361.00;;;23.80
71564;BMP180;59391;52.504;13.438;2023-07-31T12:00:27;100354.00;;;23.80
71564;BMP180;59391;52.504;13.438;2023-07-31T12:02:53;100353.00;;;23.70
71564;BMP180;59391;52.504;13.438;2023-07-31T12:05:19;100352.00;;;23.80
71564;BMP180;59391;52.504;13.438;2023-07-31T12:07:52;100358.00;;;23.80
71564;BMP180;59391;52.504;13.438;2023-07-31T12:10:31;100346.00;;;23.80
71564;BMP180;59391;52.504;13.438;2023-07-31T12:15:32;100349.00;;;23.80
71564;BMP180;59391;52.504;13.438;2023-07-31T12:17:58;100336.00;;;23.90
71564;BMP180;59391;52.504;13.438;2023-07-31T12:20:24;100344.00;;;24.00
71564;BMP180;59391;52.504;13.438;2023-07-31T12:22:50;100337.00;;;24.10
71564;BMP180;59391;52.504;13.438;2023-07-31T12:25:16;100340.00;;;24.10
71564;BMP180;59391;52.504;13.438;2023-07-31T12:27:44;100343.00;;;24.10
71564;BMP180;59391;52.504;13.438;2023-07-31T12:30:32;100340.00;;;24.10
71564;BMP180;59391;52.504;13.438;2023-07-31T12:33:03;100348.00;;;24.20
71564;BMP180;59391;52.504;13.438;2023-07-31T12:35:36;100319.00;;;24.20
71564;BMP180;59391;52.504;13.438;2023-07-31T12:38:02;100330.00;;;24.40
71564;BMP180;59391;52.504;13.438;2023-07-31T12:40:28;100333.00;;;24.40
71564;BMP180;59391;52.504;13.438;2023-07-31T12:42:54;100324.00;;;24.30
71564;BMP180;59391;52.504;13.438;2023-07-31T12:45:19;100318.00;;;24.40
71564;BMP180;59391;52.504;13.438;2023-07-31T12:47:46;100312.00;;;24.50
71564;BMP180;59391;52.504;13.438;2023-07-31T12:50:12;100314.00;;;24.50
71564;BMP180;59391;52.504;13.438;2023-07-31T12:52:38;100317.00;;;24.50
71564;BMP180;59391;52.504;13.438;2023-07-31T12:55:04;100308.00;;;24.50
71564;BMP180;59391;52.504;13.438;2023-07-31T12:57:30;100314.00;;;24.50
71564;BMP180;59391;52.504;13.438;2023-07-31T12:59:56;100312.00;;;24.40
71564;BMP180;59391;52.504;13.438;2023-07-31T13:02:22;100300.00;;;24.40
71564;BMP180;59391;52.504;13.438;2023-07-31T13:04:49;100297.00;;;24.40
71564;BMP180;59391;52.504;13.438;2023-07-31T13:07:15;100310.00;;;24.30
71564;BMP180;59391;52.504;13.438;2023-07-31T13:09:41;100316.00;;;24.10
71564;BMP180;59391;52.504;13.438;2023-07-31T13:12:07;100283.00;;;24.00
71564;BMP180;59391;52.504;13.438;2023-07-31T13:14:33;100321.00;;;23.90
71564;BMP180;59391;52.504;13.438;2023-07-31T13:16:58;100330.00;;;23.80
71564;BMP180;59391;52.504;13.438;2023-07-31T13:19:24;100324.00;;;23.80
71564;BMP180;59391;52.504;13.438;2023-07-31T13:21:50;100307.00;;;24.10
71564;BMP180;59391;52.504;13.438;2023-07-31T13:24:15;100310.00;;;24.10
71564;BMP180;59391;52.504;13.438;2023-07-31T13:26:41;100325.00;;;23.90
71564;BMP180;59391;52.504;13.438;2023-07-31T13:29:06;100316.00;;;24.10
71564;BMP180;59391;52.504;13.438;2023-07-31T13:31:32;100314.00;;;24.10
71564;BMP180;59391;52.504;13.438;2023-07-31T13:33:58;100308.00;;;24.00
71564;BMP180;59391;52.504;13.438;2023-07-31T13:36:23;100301.00;;;23.90
71564;BMP180;59391;52.504;13.438;2023-07-31T13:38:49;100296.00;;;24.00
71564;BMP180;59391;52.504;13.438;2023-07-31T13:41:14;100296.00;;;24.30
71564;BMP180;59391;52.504;13.438;2023-07-31T13:43:40;100294.00;;;24.40
71564;BMP180;59391;52.504;13.438;2023-07-31T13:46:06;100299.00;;;24.50
71564;BMP180;59391;52.504;13.438;2023-07-31T13:48:36;100292.00;;;24.50
71564;BMP180;59391;52.504;13.438;2023-07-31T13:51:02;100300.00;;;24.70
71564;BMP180;59391;52.504;13.438;2023-07-31T13:53:28;100279.00;;;24.80
71564;BMP180;59391;52.504;13.438;2023-07-31T13:55:53;100282.00;;;24.90
71564;BMP180;59391;52.504;13.438;2023-07-31T13:58:20;100278.00;;;25.00
71564;BMP180;59391;52.504;13.438;2023-07-31T14:00:46;100272.00;;;24.80
71564;BMP180;59391;52.504;13.438;2023-07-31T14:03:12;100276.00;;;24.80
71564;BMP180;59391;52.504;13.438;2023-07-31T14:05:37;100287.00;;;24.90
71564;BMP180;59391;52.504;13.438;2023-07-31T14:08:03;100262.00;;;24.90
71564;BMP180;59391;52.504;13.438;2023-07-31T14:10:29;100260.00;;;24.90
71564;BMP180;59391;52.504;13.438;2023-07-31T14:12:54;100259.00;;;24.90
71564;BMP180;59391;52.504;13.438;2023-07-31T14:15:20;100267.00;;;25.00
71564;BMP180;59391;52.504;13.438;2023-07-31T14:17:46;100258.00;;;25.00
71564;BMP180;59391;52.504;13.438;2023-07-31T14:20:12;100257.00;;;24.90
71564;BMP180;59391;52.504;13.438;2023-07-31T14:22:38;100265.00;;;24.90
71564;BMP180;59391;52.504;13.438;2023-07-31T14:25:04;100249.00;;;25.00
71564;BMP180;59391;52.504;13.438;2023-07-31T14:27:29;100256.00;;;24.90
71564;BMP180;59391;52.504;13.438;2023-07-31T14:29:55;100247.00;;;25.00
71564;BMP180;59391;52.504;13.438;2023-07-31T14:32:22;100241.00;;;24.90
71564;BMP180;59391;52.504;13.438;2023-07-31T14:34:49;100241.00;;;24.90
71564;BMP180;59391;52.504;13.438;2023-07-31T14:37:14;100245.00;;;24.80
71564;BMP180;59391;52.504;13.438;2023-07-31T14:39:40;100234.00;;;24.90
71564;BMP180;59391;52.504;13.438;2023-07-31T14:42:06;100233.00;;;25.00
71564;BMP180;59391;52.504;13.438;2023-07-31T14:44:31;100234.00;;;24.90
71564;BMP180;59391;52.504;13.438;2023-07-31T14:46:57;100220.00;;;24.90
71564;BMP180;59391;52.504;13.438;2023-07-31T14:49:23;100228.00;;;24.90
71564;BMP180;59391;52.504;13.438;2023-07-31T14:51:48;100225.00;;;25.00
71564;BMP180;59391;52.504;13.438;2023-07-31T14:54:14;100219.00;;;25.10
71564;BMP180;59391;52.504;13.438;2023-07-31T14:56:39;100210.00;;;25.10
71564;BMP180;59391;52.504;13.438;2023-07-31T14:59:05;100221.00;;;25.10
71564;BMP180;59391;52.504;13.438;2023-07-31T15:01:30;100222.00;;;25.20
71564;BMP180;59391;52.504;13.438;2023-07-31T15:03:56;100226.00;;;25.10
71564;BMP180;59391;52.504;13.438;2023-07-31T15:06:22;100215.00;;;25.10
71564;BMP180;59391;52.504;13.438;2023-07-31T15:08:47;100208.00;;;25.00
71564;BMP180;59391;52.504;13.438;2023-07-31T15:11:13;100201.00;;;25.10
71564;BMP180;59391;52.504;13.438;2023-07-31T15:13:41;100210.00;;;25.10
71564;BMP180;59391;52.504;13.438;2023-07-31T15:16:06;100218.00;;;25.20
71564;BMP180;59391;52.504;13.438;2023-07-31T15:18:32;100212.00;;;25.00
71564;BMP180;59391;52.504;13.438;2023-07-31T15:20:58;100215.00;;;25.00
71564;BMP180;59391;52.504;13.438;2023-07-31T15:23:23;100198.00;;;24.90
71564;BMP180;59391;52.504;13.438;2023-07-31T15:25:49;100197.00;;;24.80
71564;BMP180;59391;52.504;13.438;2023-07-31T15:28:14;100214.00;;;24.60
71564;BMP180;59391;52.504;13.438;2023-07-31T15:30:41;100195.00;;;24.30
71564;BMP180;59391;52.504;13.438;2023-07-31T15:33:06;100196.00;;;24.10
71564;BMP180;59391;52.504;13.438;2023-07-31T15:35:32;100188.00;;;24.00
71564;BMP180;59391;52.504;13.438;2023-07-31T15:37:57;100196.00;;;24.00
71564;BMP180;59391;52.504;13.438;2023-07-31T15:40:23;100189.00;;;24.10
71564;BMP180;59391;52.504;13.438;2023-07-31T15:42:49;100194.00;;;24.10
71564;BMP180;59391;52.504;13.438;2023-07-31T15:45:14;100185.00;;;24.20
71564;BMP180;59391;52.504;13.438;2023-07-31T15:47:40;100179.00;;;24.20
71564;BMP180;59391;52.504;13.438;2023-07-31T15:50:06;100179.00;;;24.00
71564;BMP180;59391;52.504;13.438;2023-07-31T15:52:32;100177.00;;;24.00
71564;BMP180;59391;52.504;13.438;2023-07-31T15:54:57;100169.00;;;24.00
71564;BMP180;59391;52.504;13.438;2023-07-31T15:57:23;100162.00;;;24.10
71564;BMP180;59391;52.504;13.438;2023-07-31T15:59:49;100166.00;;;24.10
71564;BMP180;59391;52.504;13.438;2023-07-31T16:02:14;100157.00;;;24.20
71564;BMP180;59391;52.504;13.438;2023-07-31T16:04:40;100152.00;;;24.20
71564;BMP180;59391;52.504;13.438;2023-07-31T16:07:06;100152.00;;;24.30
71564;BMP180;59391;52.504;13.438;2023-07-31T16:09:32;100145.00;;;24.30
71564;BMP180;59391;52.504;13.438;2023-07-31T16:11:57;100151.00;;;24.40
71564;BMP180;59391;52.504;13.438;2023-07-31T16:14:23;100160.00;;;24.40
71564;BMP180;59391;52.504;13.438;2023-07-31T16:16:48;100148.00;;;24.40
71564;BMP180;59391;52.504;13.438;2023-07-31T16:19:14;100165.00;;;24.50
71564;BMP180;59391;52.504;13.438;2023-07-31T16:21:40;100187.00;;;24.50
71564;BMP180;59391;52.504;13.438;2023-07-31T16:24:05;100182.00;;;24.50
71564;BMP180;59391;52.504;13.438;2023-07-31T16:26:31;100186.00;;;24.60
71564;BMP180;59391;52.504;13.438;2023-07-31T16:28:58;100181.00;;;24.40
71564;BMP180;59391;52.504;13.438;2023-07-31T16:31:24;100197.00;;;24.30
71564;BMP180;59391;52.504;13.438;2023-07-31T16:33:51;100195.00;;;24.50
71564;BMP180;59391;52.504;13.438;2023-07-31T16:36:17;100187.00;;;24.50
71564;BMP180;59391;52.504;13.438;2023-07-31T16:38:44;100181.00;;;24.60
71564;BMP180;59391;52.504;13.438;2023-07-31T16:41:10;100173.00;;;24.60
71564;BMP180;59391;52.504;13.438;2023-07-31T16:43:36;100176.00;;;24.70
71564;BMP180;59391;52.504;13.438;2023-07-31T16:46:01;100164.00;;;24.70
71564;BMP180;59391;52.504;13.438;2023-07-31T16:48:27;100168.00;;;24.70
71564;BMP180;59391;52.504;13.438;2023-07-31T16:50:53;100148.00;;;24.80
71564;BMP180;59391;52.504;13.438;2023-07-31T16:53:18;100146.00;;;24.80
71564;BMP180;59391;52.504;13.438;2023-07-31T16:55:44;100147.00;;;24.80
71564;BMP180;59391;52.504;13.438;2023-07-31T16:58:10;100151.00;;;24.60
71564;BMP180;59391;52.504;13.438;2023-07-31T17:00:35;100147.00;;;24.70
71564;BMP180;59391;52.504;13.438;2023-07-31T17:03:02;100146.00;;;24.80
71564;BMP180;59391;52.504;13.438;2023-07-31T17:05:28;100134.00;;;24.80
71564;BMP180;59391;52.504;13.438;2023-07-31T17:07:54;100144.00;;;24.90
71564;BMP180;59391;52.504;13.438;2023-07-31T17:10:20;100128.00;;;24.90
71564;BMP180;59391;52.504;13.438;2023-07-31T17:12:46;100139.00;;;24.90
71564;BMP180;59391;52.504;13.438;2023-07-31T17:15:11;100135.00;;;24.90
71564;BMP180;59391;52.504;13.438;2023-07-31T17:17:37;100134.00;;;25.00
71564;BMP180;59391;52.504;13.438;2023-07-31T17:20:03;100143.00;;;24.90
71564;BMP180;59391;52.504;13.438;2023-07-31T17:22:28;100145.00;;;24.90
71564;BMP180;59391;52.504;13.438;2023-07-31T17:24:54;100146.00;;;24.80
71564;BMP180;59391;52.504;13.438;2023-07-31T17:27:20;100148.00;;;24.90
71564;BMP180;59391;52.504;13.438;2023-07-31T17:29:49;100149.00;;;24.90
71564;BMP180;59391;52.504;13.438;2023-07-31T17:32:15;100165.00;;;24.90
71564;BMP180;59391;52.504;13.438;2023-07-31T17:34:40;100158.00;;;24.70
71564;BMP180;59391;52.504;13.438;2023-07-31T17:37:08;100176.00;;;24.60
71564;BMP180;59391;52.504;13.438;2023-07-31T17:39:34;100181.00;;;24.50
71564;BMP180;59391;52.504;13.438;2023-07-31T17:42:00;100167.00;;;24.20
71564;BMP180;59391;52.504;13.438;2023-07-31T17:44:26;100174.00;;;24.00
71564;BMP180;59391;52.504;13.438;2023-07-31T17:46:52;100154.00;;;23.90
71564;BMP180;59391;52.504;13.438;2023-07-31T17:49:18;100155.00;;;23.80
71564;BMP180;59391;52.504;13.438;2023-07-31T17:51:43;100158.00;;;23.70
71564;BMP180;59391;52.504;13.438;2023-07-31T17:54:09;100155.00;;;23.60
71564;BMP180;59391;52.504;13.438;2023-07-31T17:56:34;100156.00;;;23.60
71564;BMP180;59391;52.504;13.438;2023-07-31T17:59:04;100162.00;;;23.50
71564;BMP180;59391;52.504;13.438;2023-07-31T18:01:30;100171.00;;;23.50
71564;BMP180;59391;52.504;13.438;2023-07-31T18:03:56;100160.00;;;23.50
71564;BMP180;59391;52.504;13.438;2023-07-31T18:06:21;100150.00;;;23.50
71564;BMP180;59391;52.504;13.438;2023-07-31T18:08:47;100153.00;;;23.40
71564;BMP180;59391;52.504;13.438;2023-07-31T18:11:13;100148.00;;;23.40
71564;BMP180;59391;52.504;13.438;2023-07-31T18:13:40;100159.00;;;23.40
71564;BMP180;59391;52.504;13.438;2023-07-31T18:16:05;100146.00;;;23.40
71564;BMP180;59391;52.504;13.438;2023-07-31T18:18:31;100140.00;;;23.40
71564;BMP180;59391;52.504;13.438;2023-07-31T18:20:57;100125.00;;;23.40
71564;BMP180;59391;52.504;13.438;2023-07-31T18:23:24;100135.00;;;23.40
71564;BMP180;59391;52.504;13.438;2023-07-31T18:25:50;100145.00;;;23.50
71564;BMP180;59391;52.504;13.438;2023-07-31T18:28:16;100133.00;;;23.40
71564;BMP180;59391;52.504;13.438;2023-07-31T18:30:42;100132.00;;;23.50
71564;BMP180;59391;52.504;13.438;2023-07-31T18:33:07;100139.00;;;23.50
71564;BMP180;59391;52.504;13.438;2023-07-31T18:35:38;100145.00;;;23.50
71564;BMP180;59391;52.504;13.438;2023-07-31T18:38:04;100144.00;;;23.60
71564;BMP180;59391;52.504;13.438;2023-07-31T18:40:33;100138.00;;;23.60
71564;BMP180;59391;52.504;13.438;2023-07-31T18:42:59;100139.00;;;23.60
71564;BMP180;59391;52.504;13.438;2023-07-31T18:45:25;100132.00;;;23.70
71564;BMP180;59391;52.504;13.438;2023-07-31T18:47:50;100127.00;;;23.60
71564;BMP180;59391;52.504;13.438;2023-07-31T18:50:16;100141.00;;;23.60
71564;BMP180;59391;52.504;13.438;2023-07-31T18:52:41;100136.00;;;23.70
71564;BMP180;59391;52.504;13.438;2023-07-31T18:55:07;100135.00;;;23.70
71564;BMP180;59391;52.504;13.438;2023-07-31T18:57:33;100134.00;;;23.80
71564;BMP180;59391;52.504;13.438;2023-07-31T18:59:58;100121.00;;;23.80
71564;BMP180;59391;52.504;13.438;2023-07-31T19:02:24;100127.00;;;23.80
71564;BMP180;59391;52.504;13.438;2023-07-31T19:04:50;100125.00;;;23.80
71564;BMP180;59391;52.504;13.438;2023-07-31T19:07:16;100139.00;;;23.90
71564;BMP180;59391;52.504;13.438;2023-07-31T19:09:42;100123.00;;;23.80
71564;BMP180;59391;52.504;13.438;2023-07-31T19:12:08;100123.00;;;23.80
71564;BMP180;59391;52.504;13.438;2023-07-31T19:14:34;100120.00;;;23.80
71564;BMP180;59391;52.504;13.438;2023-07-31T19:17:00;100137.00;;;23.80
71564;BMP180;59391;52.504;13.438;2023-07-31T19:19:26;100124.00;;;23.80
71564;BMP180;59391;52.504;13.438;2023-07-31T19:21:52;100126.00;;;23.90
71564;BMP180;59391;52.504;13.438;2023-07-31T19:24:17;100120.00;;;23.80
71564;BMP180;59391;52.504;13.438;2023-07-31T19:26:43;100122.00;;;23.80
71564;BMP180;59391;52.504;13.438;2023-07-31T19:29:09;100117.00;;;23.80
71564;BMP180;59391;52.504;13.438;2023-07-31T19:31:37;100118.00;;;23.80
71564;BMP180;59391;52.504;13.438;2023-07-31T19:34:02;100104.00;;;23.80
71564;BMP180;59391;52.504;13.438;2023-07-31T19:36:28;100101.00;;;23.80
71564;BMP180;59391;52.504;13.438;2023-07-31T19:38:54;100092.00;;;23.80
71564;BMP180;59391;52.504;13.438;2023-07-31T19:41:19;100098.00;;;23.70
71564;BMP180;59391;52.504;13.438;2023-07-31T19:43:45;100095.00;;;23.70
71564;BMP180;59391;52.504;13.438;2023-07-31T19:46:11;100096.00;;;23.70
71564;BMP180;59391;52.504;13.438;2023-07-31T19:48:37;100099.00;;;23.70
71564;BMP180;59391;52.504;13.438;2023-07-31T19:51:02;100096.00;;;23.70
71564;BMP180;59391;52.504;13.438;2023-07-31T19:53:29;100088.00;;;23.70
71564;BMP180;59391;52.504;13.438;2023-07-31T19:55:55;100097.00;;;23.70
71564;BMP180;59391;52.504;13.438;2023-07-31T19:58:22;100093.00;;;23.70
71564;BMP180;59391;52.504;13.438;2023-07-31T20:00:47;100083.00;;;23.70
71564;BMP180;59391;52.504;13.438;2023-07-31T20:03:13;100082.00;;;23.70
71564;BMP180;59391;52.504;13.438;2023-07-31T20:05:39;100090.00;;;23.70
71564;BMP180;59391;52.504;13.438;2023-07-31T20:08:06;100069.00;;;23.70
71564;BMP180;59391;52.504;13.438;2023-07-31T20:10:34;100080.00;;;23.70
71564;BMP180;59391;52.504;13.438;2023-07-31T20:13:00;100068.00;;;23.70
71564;BMP180;59391;52.504;13.438;2023-07-31T20:15:25;100080.00;;;23.60
71564;BMP180;59391;52.504;13.438;2023-07-31T20:17:51;100064.00;;;23.60
71564;BMP180;59391;52.504;13.438;2023-07-31T20:20:17;100069.00;;;23.60
71564;BMP180;59391;52.504;13.438;2023-07-31T20:22:42;100057.00;;;23.60
71564;BMP180;59391;52.504;13.438;2023-07-31T20:25:08;100062.00;;;23.60
71564;BMP180;59391;52.504;13.438;2023-07-31T20:27:34;100038.00;;;23.60
71564;BMP180;59391;52.504;13.438;2023-07-31T20:30:00;100041.00;;;23.60
71564;BMP180;59391;52.504;13.438;2023-07-31T20:32:26;100044.00;;;23.60
71564;BMP180;59391;52.504;13.438;2023-07-31T20:34:51;100039.00;;;23.60
71564;BMP180;59391;52.504;13.438;2023-07-31T20:37:17;100028.00;;;23.60
71564;BMP180;59391;52.504;13.438;2023-07-31T20:39:43;100043.00;;;23.60
71564;BMP180;59391;52.504;13.438;2023-07-31T20:42:08;100024.00;;;23.50
71564;BMP180;59391;52.504;13.438;2023-07-31T20:44:39;100030.00;;;23.50
71564;BMP180;59391;52.504;13.438;2023-07-31T20:47:05;100034.00;;;23.50
71564;BMP180;59391;52.504;13.438;2023-07-31T20:49:31;100023.00;;;23.50
71564;BMP180;59391;52.504;13.438;2023-07-31T20:51:56;100015.00;;;23.50
71564;BMP180;59391;52.504;13.438;2023-07-31T20:54:22;100000.00;;;23.50
71564;BMP180;59391;52.504;13.438;2023-07-31T20:56:47;100011.00;;;23.50
71564;BMP180;59391;52.504;13.438;2023-07-31T20:59:14;100010.00;;;23.40
71564;BMP180;59391;52.504;13.438;2023-07-31T21:01:40;100009.00;;;23.40
71564;BMP180;59391;52.504;13.438;2023-07-31T21:04:08;99998.00;;;23.40
71564;BMP180;59391;52.504;13.438;2023-07-31T21:06:36;100001.00;;;23.40
71564;BMP180;59391;52.504;13.438;2023-07-31T21:09:03;99999.00;;;23.30
71564;BMP180;59391;52.504;13.438;2023-07-31T21:11:30;99989.00;;;23.30
71564;BMP180;59391;52.504;13.438;2023-07-31T21:13:58;99989.00;;;23.30
71564;BMP180;59391;52.504;13.438;2023-07-31T21:16:25;99991.00;;;23.30
71564;BMP180;59391;52.504;13.438;2023-07-31T21:18:51;99978.00;;;23.30
71564;BMP180;59391;52.504;13.438;2023-07-31T21:21:19;99974.00;;;23.30
71564;BMP180;59391;52.504;13.438;2023-07-31T21:23:44;99968.00;;;23.30
71564;BMP180;59391;52.504;13.438;2023-07-31T21:26:10;99965.00;;;23.30
71564;BMP180;59391;52.504;13.438;2023-07-31T21:28:36;99967.00;;;23.30
71564;BMP180;59391;52.504;13.438;2023-07-31T21:31:15;99954.00;;;23.30
71564;BMP180;59391;52.504;13.438;2023-07-31T21:33:42;99957.00;;;23.30
71564;BMP180;59391;52.504;13.438;2023-07-31T21:36:07;99953.00;;;23.30
71564;BMP180;59391;52.504;13.438;2023-07-31T21:38:33;99961.00;;;23.30
71564;BMP180;59391;52.504;13.438;2023-07-31T21:40:59;99955.00;;;23.30
71564;BMP180;59391;52.504;13.438;2023-07-31T21:43:25;99951.00;;;23.20
71564;BMP180;59391;52.504;13.438;2023-07-31T21:45:51;99942.00;;;23.20
71564;BMP180;59391;52.504;13.438;2023-07-31T21:48:17;99946.00;;;23.30
71564;BMP180;59391;52.504;13.438;2023-07-31T21:50:44;99937.00;;;23.20
71564;BMP180;59391;52.504;13.438;2023-07-31T21:53:10;99936.00;;;23.30
71564;BMP180;59391;52.504;13.438;2023-07-31T21:55:35;99935.00;;;23.20
71564;BMP180;59391;52.504;13.438;2023-07-31T21:58:01;99939.00;;;23.20
71564;BMP180;59391;52.504;13.438;2023-07-31T22:00:27;99934.00;;;23.30
71564;BMP180;59391;52.504;13.438;2023-07-31T22:02:53;99936.00;;;23.30
71564;BMP180;59391;52.504;13.438;2023-07-31T22:05:19;99927.00;;;23.30
71564;BMP180;59391;52.504;13.438;2023-07-31T22:07:44;99932.00;;;23.30
71564;BMP180;59391;52.504;13.438;2023-07-31T22:10:10;99924.00;;;23.30
71564;BMP180;59391;52.504;13.438;2023-07-31T22:12:36;99919.00;;;23.30
71564;BMP180;59391;52.504;13.438;2023-07-31T22:15:02;99916.00;;;23.30
71564;BMP180;59391;52.504;13.438;2023-07-31T22:17:27;99910.00;;;23.30
71564;BMP180;59391;52.504;13.438;2023-07-31T22:19:53;99906.00;;;23.30
71564;BMP180;59391;52.504;13.438;2023-07-31T22:22:18;99904.00;;;23.30
71564;BMP180;59391;52.504;13.438;2023-07-31T22:24:44;99891.00;;;23.30
71564;BMP180;59391;52.504;13.438;2023-07-31T22:27:14;99903.00;;;23.30
71564;BMP180;59391;52.504;13.438;2023-07-31T22:29:40;99890.00;;;23.30
71564;BMP180;59391;52.504;13.438;2023-07-31T22:32:07;99886.00;;;23.30
71564;BMP180;59391;52.504;13.438;2023-07-31T22:34:32;99885.00;;;23.30
71564;BMP180;59391;52.504;13.438;2023-07-31T22:36:58;99868.00;;;23.40
71564;BMP180;59391;52.504;13.438;2023-07-31T22:39:24;99863.00;;;23.40
71564;BMP180;59391;52.504;13.438;2023-07-31T22:41:49;99859.00;;;23.40
71564;BMP180;59391;52.504;13.438;2023-07-31T22:44:15;99867.00;;;23.40
71564;BMP180;59391;52.504;13.438;2023-07-31T22:46:41;99857.00;;;23.40
71564;BMP180;59391;52.504;13.438;2023-07-31T22:49:06;99856.00;;;23.40
71564;BMP180;59391;52.504;13.438;2023-07-31T22:51:32;99849.00;;;23.40
71564;BMP180;59391;52.504;13.438;2023-07-31T22:53:58;99849.00;;;23.40
71564;BMP180;59391;52.504;13.438;2023-07-31T22:56:24;99841.00;;;23.40
71564;BMP180;59391;52.504;13.438;2023-07-31T22:58:49;99831.00;;;23.40
71564;BMP180;59391;52.504;13.438;2023-07-31T23:01:15;99827.00;;;23.50
71564;BMP180;59391;52.504;13.438;2023-07-31T23:03:43;99825.00;;;23.40
71564;BMP180;59391;52.504;13.438;2023-07-31T23:06:08;99821.00;;;23.40
71564;BMP180;59391;52.504;13.438;2023-07-31T23:08:34;99825.00;;;23.40
71564;BMP180;59391;52.504;13.438;2023-07-31T23:11:02;99822.00;;;23.40
71564;BMP180;59391;52.504;13.438;2023-07-31T23:13:27;99818.00;;;23.50
71564;BMP180;59391;52.504;13.438;2023-07-31T23:15:53;99817.00;;;23.50
71564;BMP180;59391;52.504;13.438;2023-07-31T23:18:19;99812.00;;;23.40
71564;BMP180;59391;52.504;13.438;2023-07-31T23:20:52;99807.00;;;23.40
71564;BMP180;59391;52.504;13.438;2023-07-31T23:23:19;99802.00;;;23.50
71564;BMP180;59391;52.504;13.438;2023-07-31T23:25:47;99803.00;;;23.40
71564;BMP180;59391;52.504;13.438;2023-07-31T23:28:14;99793.00;;;23.40
71564;BMP180;59391;52.504;13.438;2023-07-31T23:30:39;99785.00;;;23.40
71564;BMP180;59391;52.504;13.438;2023-07-31T23:33:06;99793.00;;;23.30
71564;BMP180;59391;52.504;13.438;2023-07-31T23:35:31;99788.00;;;23.30
71564;BMP180;59391;52.504;13.438;2023-07-31T23:37:57;99781.00;;;23.30
71564;BMP180;59391;52.504;13.438;2023-07-31T23:40:25;99792.00;;;23.10
71564;BMP180;59391;52.504;13.438;2023-07-31T23:42:50;99775.00;;;23.00
71564;BMP180;59391;52.504;13.438;2023-07-31T23:45:16;99781.00;;;22.90
71564;BMP180;59391;52.504;13.438;2023-07-31T23:47:42;99772.00;;;22.80
71564;BMP180;59391;52.504;13.438;2023-07-31T23:50:08;99768.00;;;22.70
71564;BMP180;59391;52.504;13.438;2023-07-31T23:52:38;99772.00;;;22.60
71564;BMP180;59391;52.504;13.438;2023-07-31T23:55:05;99775.00;;;22.50
71564;BMP180;59391;52.504;13.438;2023-07-31T23:57:31;99761.00;;;22.60
71564;BMP180;59391;52.504;13.438;2023-07-31T23:59:56;99759.00;;;22.50
